sensor_id;sensor_type;location;lat;lon;timestamp;P1;durP1;ratioP1;P2;durP2;ratioP2
66020;SDS011;52789;59.980;30.346;2022-12-18T00:01:23;14.57;;;8.27;;
66020;SDS011;52789;59.980;30.346;2022-12-18T00:06:16;12.25;;;6.95;;
66020;SDS011;52789;59.980;30.346;2022-12-18T00:08:43;12.77;;;8.77;;
66020;SDS011;52789;59.980;30.346;2022-12-18T00:11:20;12.18;;;8.50;;
66020;SDS011;52789;59.980;30.346;2022-12-18T00:13:48;12.43;;;8.90;;
66020;SDS011;52789;59.980;30.346;2022-12-18T00:16:16;11.63;;;7.18;;
66020;SDS011;52789;59.980;30.346;2022-12-18T00:18:45;12.50;;;8.45;;
66020;SDS011;52789;59.980;30.346;2022-12-18T00:21:13;13.00;;;8.32;;
66020;SDS011;52789;59.980;30.346;2022-12-18T00:23:41;10.85;;;7.47;;
66020;SDS011;52789;59.980;30.346;2022-12-18T00:26:10;10.32;;;7.05;;
66020;SDS011;52789;59.980;30.346;2022-12-18T00:28:37;11.93;;;8.35;;
66020;SDS011;52789;59.980;30.346;2022-12-18T00:31:04;11.27;;;8.50;;
66020;SDS011;52789;59.980;30.346;2022-12-18T00:33:35;14.77;;;7.55;;
66020;SDS011;52789;59.980;30.346;2022-12-18T00:36:05;10.88;;;7.30;;
66020;SDS011;52789;59.980;30.346;2022-12-18T00:38:34;12.57;;;7.72;;
66020;SDS011;52789;59.980;30.346;2022-12-18T00:41:00;11.82;;;7.20;;
66020;SDS011;52789;59.980;30.346;2022-12-18T00:43:26;12.70;;;8.53;;
66020;SDS011;52789;59.980;30.346;2022-12-18T00:45:52;10.33;;;7.73;;
66020;SDS011;52789;59.980;30.346;2022-12-18T00:48:18;16.75;;;8.25;;
66020;SDS011;52789;59.980;30.346;2022-12-18T00:50:43;13.50;;;8.63;;
66020;SDS011;52789;59.980;30.346;2022-12-18T00:53:12;13.20;;;9.17;;
66020;SDS011;52789;59.980;30.346;2022-12-18T00:55:38;12.88;;;8.63;;
66020;SDS011;52789;59.980;30.346;2022-12-18T00:58:04;14.60;;;8.98;;
66020;SDS011;52789;59.980;30.346;2022-12-18T01:00:30;13.20;;;8.77;;
66020;SDS011;52789;59.980;30.346;2022-12-18T01:02:55;12.07;;;8.27;;
66020;SDS011;52789;59.980;30.346;2022-12-18T01:05:21;14.00;;;8.67;;
66020;SDS011;52789;59.980;30.346;2022-12-18T01:07:47;12.33;;;9.20;;
66020;SDS011;52789;59.980;30.346;2022-12-18T01:10:12;14.03;;;9.57;;
66020;SDS011;52789;59.980;30.346;2022-12-18T01:12:39;11.68;;;7.90;;
66020;SDS011;52789;59.980;30.346;2022-12-18T01:15:05;12.07;;;8.97;;
66020;SDS011;52789;59.980;30.346;2022-12-18T01:17:31;17.38;;;10.05;;
66020;SDS011;52789;59.980;30.346;2022-12-18T01:19:57;13.27;;;10.07;;
66020;SDS011;52789;59.980;30.346;2022-12-18T01:22:26;12.60;;;9.52;;
66020;SDS011;52789;59.980;30.346;2022-12-18T01:24:51;12.97;;;8.87;;
66020;SDS011;52789;59.980;30.346;2022-12-18T01:27:17;11.80;;;8.20;;
66020;SDS011;52789;59.980;30.346;2022-12-18T01:29:43;13.67;;;9.43;;
66020;SDS011;52789;59.980;30.346;2022-12-18T01:32:10;12.00;;;8.48;;
66020;SDS011;52789;59.980;30.346;2022-12-18T01:34:36;11.13;;;8.63;;
66020;SDS011;52789;59.980;30.346;2022-12-18T01:37:03;13.77;;;9.60;;
66020;SDS011;52789;59.980;30.346;2022-12-18T01:39:29;12.85;;;8.48;;
66020;SDS011;52789;59.980;30.346;2022-12-18T01:41:55;12.23;;;9.00;;
66020;SDS011;52789;59.980;30.346;2022-12-18T01:50:13;13.82;;;9.57;;
66020;SDS011;52789;59.980;30.346;2022-12-18T01:52:41;13.70;;;9.70;;
66020;SDS011;52789;59.980;30.346;2022-12-18T01:55:09;12.60;;;8.88;;
66020;SDS011;52789;59.980;30.346;2022-12-18T01:57:37;16.85;;;9.02;;
66020;SDS011;52789;59.980;30.346;2022-12-18T02:00:09;13.10;;;9.77;;
66020;SDS011;52789;59.980;30.346;2022-12-18T02:02:37;15.27;;;10.82;;
66020;SDS011;52789;59.980;30.346;2022-12-18T02:05:03;17.48;;;10.00;;
66020;SDS011;52789;59.980;30.346;2022-12-18T02:18:49;13.27;;;9.55;;
66020;SDS011;52789;59.980;30.346;2022-12-18T02:26:38;15.20;;;9.88;;
66020;SDS011;52789;59.980;30.346;2022-12-18T02:29:13;15.63;;;9.95;;
66020;SDS011;52789;59.980;30.346;2022-12-18T02:31:54;14.68;;;10.65;;
66020;SDS011;52789;59.980;30.346;2022-12-18T02:34:24;14.18;;;9.93;;
66020;SDS011;52789;59.980;30.346;2022-12-18T02:36:56;14.20;;;9.60;;
66020;SDS011;52789;59.980;30.346;2022-12-18T02:39:24;12.25;;;8.95;;
66020;SDS011;52789;59.980;30.346;2022-12-18T02:41:52;13.95;;;9.52;;
66020;SDS011;52789;59.980;30.346;2022-12-18T02:44:17;13.73;;;9.23;;
66020;SDS011;52789;59.980;30.346;2022-12-18T02:46:48;17.27;;;10.57;;
66020;SDS011;52789;59.980;30.346;2022-12-18T02:57:25;17.15;;;10.52;;
66020;SDS011;52789;59.980;30.346;2022-12-18T03:02:41;15.80;;;9.93;;
66020;SDS011;52789;59.980;30.346;2022-12-18T03:05:22;15.93;;;10.55;;
66020;SDS011;52789;59.980;30.346;2022-12-18T03:07:59;17.77;;;12.20;;
66020;SDS011;52789;59.980;30.346;2022-12-18T03:10:32;17.15;;;11.25;;
66020;SDS011;52789;59.980;30.346;2022-12-18T03:13:12;15.23;;;9.68;;
66020;SDS011;52789;59.980;30.346;2022-12-18T03:15:42;24.35;;;12.07;;
66020;SDS011;52789;59.980;30.346;2022-12-18T03:18:16;17.13;;;10.35;;
66020;SDS011;52789;59.980;30.346;2022-12-18T03:20:44;20.42;;;13.23;;
66020;SDS011;52789;59.980;30.346;2022-12-18T03:23:14;20.73;;;11.63;;
66020;SDS011;52789;59.980;30.346;2022-12-18T03:25:44;16.55;;;10.50;;
66020;SDS011;52789;59.980;30.346;2022-12-18T03:28:15;19.77;;;11.85;;
66020;SDS011;52789;59.980;30.346;2022-12-18T03:30:46;21.08;;;12.48;;
66020;SDS011;52789;59.980;30.346;2022-12-18T03:33:20;19.20;;;12.18;;
66020;SDS011;52789;59.980;30.346;2022-12-18T03:35:50;18.92;;;12.55;;
66020;SDS011;52789;59.980;30.346;2022-12-18T03:38:16;21.27;;;14.00;;
66020;SDS011;52789;59.980;30.346;2022-12-18T03:41:03;18.33;;;13.23;;
66020;SDS011;52789;59.980;30.346;2022-12-18T03:46:54;19.15;;;12.73;;
66020;SDS011;52789;59.980;30.346;2022-12-18T03:49:47;20.73;;;13.85;;
66020;SDS011;52789;59.980;30.346;2022-12-18T03:54:53;21.85;;;14.60;;
66020;SDS011;52789;59.980;30.346;2022-12-18T03:57:23;23.27;;;13.40;;
66020;SDS011;52789;59.980;30.346;2022-12-18T03:59:54;23.17;;;13.55;;
66020;SDS011;52789;59.980;30.346;2022-12-18T04:02:22;23.65;;;13.25;;
66020;SDS011;52789;59.980;30.346;2022-12-18T04:04:50;20.70;;;14.00;;
66020;SDS011;52789;59.980;30.346;2022-12-18T04:09:45;20.23;;;13.15;;
66020;SDS011;52789;59.980;30.346;2022-12-18T04:12:11;20.58;;;13.35;;
66020;SDS011;52789;59.980;30.346;2022-12-18T04:14:37;24.97;;;13.57;;
66020;SDS011;52789;59.980;30.346;2022-12-18T04:17:03;20.10;;;14.70;;
66020;SDS011;52789;59.980;30.346;2022-12-18T04:19:28;17.00;;;12.25;;
66020;SDS011;52789;59.980;30.346;2022-12-18T04:21:54;26.40;;;13.37;;
66020;SDS011;52789;59.980;30.346;2022-12-18T04:24:20;18.30;;;12.53;;
66020;SDS011;52789;59.980;30.346;2022-12-18T04:26:46;25.98;;;15.43;;
66020;SDS011;52789;59.980;30.346;2022-12-18T04:29:11;22.47;;;13.33;;
66020;SDS011;52789;59.980;30.346;2022-12-18T04:31:40;21.97;;;14.73;;
66020;SDS011;52789;59.980;30.346;2022-12-18T04:34:05;23.80;;;14.85;;
66020;SDS011;52789;59.980;30.346;2022-12-18T04:36:31;26.13;;;16.47;;
66020;SDS011;52789;59.980;30.346;2022-12-18T04:38:56;24.17;;;13.87;;
66020;SDS011;52789;59.980;30.346;2022-12-18T04:41:22;26.37;;;14.10;;
66020;SDS011;52789;59.980;30.346;2022-12-18T04:43:47;26.50;;;15.47;;
66020;SDS011;52789;59.980;30.346;2022-12-18T04:46:13;27.43;;;15.73;;
66020;SDS011;52789;59.980;30.346;2022-12-18T04:48:38;27.33;;;15.70;;
66020;SDS011;52789;59.980;30.346;2022-12-18T04:51:04;26.77;;;16.90;;
66020;SDS011;52789;59.980;30.346;2022-12-18T04:53:30;26.08;;;16.30;;
66020;SDS011;52789;59.980;30.346;2022-12-18T04:56:06;27.20;;;16.03;;
66020;SDS011;52789;59.980;30.346;2022-12-18T04:58:34;24.83;;;15.13;;
66020;SDS011;52789;59.980;30.346;2022-12-18T05:01:00;27.10;;;15.05;;
66020;SDS011;52789;59.980;30.346;2022-12-18T05:03:26;26.37;;;15.97;;
66020;SDS011;52789;59.980;30.346;2022-12-18T05:05:51;33.17;;;19.90;;
66020;SDS011;52789;59.980;30.346;2022-12-18T05:08:17;31.13;;;19.10;;
66020;SDS011;52789;59.980;30.346;2022-12-18T05:10:44;33.60;;;19.17;;
66020;SDS011;52789;59.980;30.346;2022-12-18T05:13:09;27.40;;;17.63;;
66020;SDS011;52789;59.980;30.346;2022-12-18T05:15:35;26.47;;;17.43;;
66020;SDS011;52789;59.980;30.346;2022-12-18T05:18:01;28.93;;;17.80;;
66020;SDS011;52789;59.980;30.346;2022-12-18T05:20:27;30.67;;;16.90;;
66020;SDS011;52789;59.980;30.346;2022-12-18T05:22:53;29.30;;;17.33;;
66020;SDS011;52789;59.980;30.346;2022-12-18T05:25:20;29.23;;;18.35;;
66020;SDS011;52789;59.980;30.346;2022-12-18T05:27:46;30.88;;;18.45;;
66020;SDS011;52789;59.980;30.346;2022-12-18T05:30:12;29.23;;;16.67;;
66020;SDS011;52789;59.980;30.346;2022-12-18T05:32:38;27.35;;;16.95;;
66020;SDS011;52789;59.980;30.346;2022-12-18T05:35:04;29.77;;;17.47;;
66020;SDS011;52789;59.980;30.346;2022-12-18T05:37:30;39.50;;;26.63;;
66020;SDS011;52789;59.980;30.346;2022-12-18T05:39:58;37.63;;;24.55;;
66020;SDS011;52789;59.980;30.346;2022-12-18T05:42:24;43.23;;;29.80;;
66020;SDS011;52789;59.980;30.346;2022-12-18T05:44:49;37.73;;;22.57;;
66020;SDS011;52789;59.980;30.346;2022-12-18T05:47:15;44.40;;;23.63;;
66020;SDS011;52789;59.980;30.346;2022-12-18T05:49:40;27.57;;;17.90;;
66020;SDS011;52789;59.980;30.346;2022-12-18T05:52:06;35.47;;;20.10;;
66020;SDS011;52789;59.980;30.346;2022-12-18T05:54:31;30.20;;;20.60;;
66020;SDS011;52789;59.980;30.346;2022-12-18T05:56:57;28.60;;;17.53;;
66020;SDS011;52789;59.980;30.346;2022-12-18T05:59:23;31.42;;;18.45;;
66020;SDS011;52789;59.980;30.346;2022-12-18T06:01:49;24.87;;;17.63;;
66020;SDS011;52789;59.980;30.346;2022-12-18T06:04:15;26.07;;;17.00;;
66020;SDS011;52789;59.980;30.346;2022-12-18T06:06:40;32.10;;;18.70;;
66020;SDS011;52789;59.980;30.346;2022-12-18T06:09:06;30.40;;;18.63;;
66020;SDS011;52789;59.980;30.346;2022-12-18T06:11:35;32.03;;;18.73;;
66020;SDS011;52789;59.980;30.346;2022-12-18T06:14:02;29.35;;;17.63;;
66020;SDS011;52789;59.980;30.346;2022-12-18T06:16:28;29.88;;;20.40;;
66020;SDS011;52789;59.980;30.346;2022-12-18T06:19:00;26.63;;;18.08;;
66020;SDS011;52789;59.980;30.346;2022-12-18T06:21:28;28.92;;;19.65;;
66020;SDS011;52789;59.980;30.346;2022-12-18T06:23:57;25.92;;;16.88;;
66020;SDS011;52789;59.980;30.346;2022-12-18T06:26:23;33.55;;;18.98;;
66020;SDS011;52789;59.980;30.346;2022-12-18T06:28:52;30.50;;;18.55;;
66020;SDS011;52789;59.980;30.346;2022-12-18T06:31:18;26.52;;;16.98;;
66020;SDS011;52789;59.980;30.346;2022-12-18T06:33:43;24.53;;;16.33;;
66020;SDS011;52789;59.980;30.346;2022-12-18T06:36:11;29.40;;;18.05;;
66020;SDS011;52789;59.980;30.346;2022-12-18T06:38:38;28.65;;;16.73;;
66020;SDS011;52789;59.980;30.346;2022-12-18T06:41:09;24.58;;;16.95;;
66020;SDS011;52789;59.980;30.346;2022-12-18T06:43:39;30.83;;;16.02;;
66020;SDS011;52789;59.980;30.346;2022-12-18T06:46:05;29.83;;;17.13;;
66020;SDS011;52789;59.980;30.346;2022-12-18T06:48:31;26.77;;;16.20;;
66020;SDS011;52789;59.980;30.346;2022-12-18T06:50:57;25.37;;;15.00;;
66020;SDS011;52789;59.980;30.346;2022-12-18T06:53:23;28.47;;;19.47;;
66020;SDS011;52789;59.980;30.346;2022-12-18T06:55:48;22.07;;;14.80;;
66020;SDS011;52789;59.980;30.346;2022-12-18T06:58:16;27.35;;;17.58;;
66020;SDS011;52789;59.980;30.346;2022-12-18T07:00:42;27.15;;;16.35;;
66020;SDS011;52789;59.980;30.346;2022-12-18T07:03:08;30.77;;;17.77;;
66020;SDS011;52789;59.980;30.346;2022-12-18T07:05:33;30.00;;;17.77;;
66020;SDS011;52789;59.980;30.346;2022-12-18T07:07:59;30.63;;;16.87;;
66020;SDS011;52789;59.980;30.346;2022-12-18T07:10:25;35.67;;;19.23;;
66020;SDS011;52789;59.980;30.346;2022-12-18T07:12:50;27.48;;;17.77;;
66020;SDS011;52789;59.980;30.346;2022-12-18T07:15:16;26.77;;;15.97;;
66020;SDS011;52789;59.980;30.346;2022-12-18T07:17:41;24.57;;;15.20;;
66020;SDS011;52789;59.980;30.346;2022-12-18T07:20:07;26.80;;;15.70;;
66020;SDS011;52789;59.980;30.346;2022-12-18T07:22:33;22.63;;;15.43;;
66020;SDS011;52789;59.980;30.346;2022-12-18T07:24:59;23.63;;;15.23;;
66020;SDS011;52789;59.980;30.346;2022-12-18T07:27:24;22.70;;;13.87;;
66020;SDS011;52789;59.980;30.346;2022-12-18T07:29:51;23.52;;;16.30;;
66020;SDS011;52789;59.980;30.346;2022-12-18T07:32:16;19.93;;;13.80;;
66020;SDS011;52789;59.980;30.346;2022-12-18T07:34:42;23.70;;;13.80;;
66020;SDS011;52789;59.980;30.346;2022-12-18T07:37:07;25.60;;;15.70;;
66020;SDS011;52789;59.980;30.346;2022-12-18T07:39:33;25.80;;;16.17;;
66020;SDS011;52789;59.980;30.346;2022-12-18T07:41:58;27.47;;;16.53;;
66020;SDS011;52789;59.980;30.346;2022-12-18T07:44:42;30.25;;;16.00;;
66020;SDS011;52789;59.980;30.346;2022-12-18T07:47:08;40.17;;;21.83;;
66020;SDS011;52789;59.980;30.346;2022-12-18T07:49:33;28.70;;;18.23;;
66020;SDS011;52789;59.980;30.346;2022-12-18T07:51:59;32.50;;;18.90;;
66020;SDS011;52789;59.980;30.346;2022-12-18T07:54:25;34.50;;;20.67;;
66020;SDS011;52789;59.980;30.346;2022-12-18T07:56:50;35.70;;;19.23;;
66020;SDS011;52789;59.980;30.346;2022-12-18T07:59:17;35.17;;;20.40;;
66020;SDS011;52789;59.980;30.346;2022-12-18T08:01:43;34.08;;;20.77;;
66020;SDS011;52789;59.980;30.346;2022-12-18T08:04:09;34.97;;;19.77;;
66020;SDS011;52789;59.980;30.346;2022-12-18T08:06:34;34.00;;;20.20;;
66020;SDS011;52789;59.980;30.346;2022-12-18T08:09:00;37.67;;;21.03;;
66020;SDS011;52789;59.980;30.346;2022-12-18T08:11:26;33.27;;;18.30;;
66020;SDS011;52789;59.980;30.346;2022-12-18T08:13:53;48.72;;;23.08;;
66020;SDS011;52789;59.980;30.346;2022-12-18T08:16:19;47.35;;;27.08;;
66020;SDS011;52789;59.980;30.346;2022-12-18T08:18:45;38.23;;;23.13;;
66020;SDS011;52789;59.980;30.346;2022-12-18T08:21:11;33.83;;;18.73;;
66020;SDS011;52789;59.980;30.346;2022-12-18T08:23:38;34.10;;;20.80;;
66020;SDS011;52789;59.980;30.346;2022-12-18T08:26:04;29.83;;;18.92;;
66020;SDS011;52789;59.980;30.346;2022-12-18T08:28:30;29.77;;;18.60;;
66020;SDS011;52789;59.980;30.346;2022-12-18T08:31:04;31.73;;;17.30;;
66020;SDS011;52789;59.980;30.346;2022-12-18T08:33:30;33.13;;;19.13;;
66020;SDS011;52789;59.980;30.346;2022-12-18T08:35:56;34.93;;;20.10;;
66020;SDS011;52789;59.980;30.346;2022-12-18T08:38:23;34.20;;;20.08;;
66020;SDS011;52789;59.980;30.346;2022-12-18T08:40:48;38.07;;;20.50;;
66020;SDS011;52789;59.980;30.346;2022-12-18T08:43:14;35.63;;;20.00;;
66020;SDS011;52789;59.980;30.346;2022-12-18T08:45:58;47.55;;;23.27;;
66020;SDS011;52789;59.980;30.346;2022-12-18T08:48:23;42.90;;;22.33;;
66020;SDS011;52789;59.980;30.346;2022-12-18T08:50:58;45.60;;;26.53;;
66020;SDS011;52789;59.980;30.346;2022-12-18T08:53:25;59.45;;;27.23;;
66020;SDS011;52789;59.980;30.346;2022-12-18T08:55:52;46.97;;;24.85;;
66020;SDS011;52789;59.980;30.346;2022-12-18T08:58:18;46.42;;;26.50;;
66020;SDS011;52789;59.980;30.346;2022-12-18T09:00:44;46.38;;;25.75;;
66020;SDS011;52789;59.980;30.346;2022-12-18T09:03:13;45.87;;;24.97;;
66020;SDS011;52789;59.980;30.346;2022-12-18T09:05:40;47.78;;;24.70;;
66020;SDS011;52789;59.980;30.346;2022-12-18T09:08:09;44.80;;;25.42;;
66020;SDS011;52789;59.980;30.346;2022-12-18T09:10:40;46.97;;;24.87;;
66020;SDS011;52789;59.980;30.346;2022-12-18T09:13:07;41.03;;;25.00;;
66020;SDS011;52789;59.980;30.346;2022-12-18T09:15:32;39.00;;;21.43;;
66020;SDS011;52789;59.980;30.346;2022-12-18T09:17:58;36.83;;;21.03;;
66020;SDS011;52789;59.980;30.346;2022-12-18T09:20:23;32.57;;;18.23;;
66020;SDS011;52789;59.980;30.346;2022-12-18T09:22:49;33.53;;;19.40;;
66020;SDS011;52789;59.980;30.346;2022-12-18T09:25:15;30.97;;;19.47;;
66020;SDS011;52789;59.980;30.346;2022-12-18T09:27:40;33.30;;;18.70;;
66020;SDS011;52789;59.980;30.346;2022-12-18T09:30:07;36.00;;;19.15;;
66020;SDS011;52789;59.980;30.346;2022-12-18T09:33:02;27.75;;;16.88;;
66020;SDS011;52789;59.980;30.346;2022-12-18T09:35:28;50.53;;;28.23;;
66020;SDS011;52789;59.980;30.346;2022-12-18T09:37:53;30.97;;;15.97;;
66020;SDS011;52789;59.980;30.346;2022-12-18T09:40:20;23.63;;;14.57;;
66020;SDS011;52789;59.980;30.346;2022-12-18T09:42:51;27.77;;;14.97;;
66020;SDS011;52789;59.980;30.346;2022-12-18T09:45:20;24.70;;;16.27;;
66020;SDS011;52789;59.980;30.346;2022-12-18T09:47:47;25.65;;;15.05;;
66020;SDS011;52789;59.980;30.346;2022-12-18T09:52:59;28.02;;;16.55;;
66020;SDS011;52789;59.980;30.346;2022-12-18T09:55:35;27.90;;;15.80;;
66020;SDS011;52789;59.980;30.346;2022-12-18T09:58:18;30.15;;;16.75;;
66020;SDS011;52789;59.980;30.346;2022-12-18T10:00:51;28.38;;;17.42;;
66020;SDS011;52789;59.980;30.346;2022-12-18T10:03:17;30.15;;;17.83;;
66020;SDS011;52789;59.980;30.346;2022-12-18T10:06:02;27.10;;;15.43;;
66020;SDS011;52789;59.980;30.346;2022-12-18T10:17:12;28.20;;;14.95;;
66020;SDS011;52789;59.980;30.346;2022-12-18T10:19:47;24.15;;;15.07;;
66020;SDS011;52789;59.980;30.346;2022-12-18T10:22:21;38.67;;;20.40;;
66020;SDS011;52789;59.980;30.346;2022-12-18T10:24:55;31.45;;;15.55;;
66020;SDS011;52789;59.980;30.346;2022-12-18T10:27:28;19.35;;;12.60;;
66020;SDS011;52789;59.980;30.346;2022-12-18T10:29:56;24.73;;;11.52;;
66020;SDS011;52789;59.980;30.346;2022-12-18T10:32:23;18.60;;;11.93;;
66020;SDS011;52789;59.980;30.346;2022-12-18T10:34:54;27.38;;;13.77;;
66020;SDS011;52789;59.980;30.346;2022-12-18T10:37:22;24.35;;;13.30;;
66020;SDS011;52789;59.980;30.346;2022-12-18T10:42:36;23.02;;;15.43;;
66020;SDS011;52789;59.980;30.346;2022-12-18T10:45:20;28.33;;;14.13;;
66020;SDS011;52789;59.980;30.346;2022-12-18T10:47:47;26.52;;;12.65;;
66020;SDS011;52789;59.980;30.346;2022-12-18T10:50:28;16.63;;;10.02;;
66020;SDS011;52789;59.980;30.346;2022-12-18T10:53:00;20.52;;;12.70;;
66020;SDS011;52789;59.980;30.346;2022-12-18T10:55:32;20.13;;;11.50;;
66020;SDS011;52789;59.980;30.346;2022-12-18T11:01:45;19.58;;;12.63;;
66020;SDS011;52789;59.980;30.346;2022-12-18T11:04:16;17.05;;;11.02;;
66020;SDS011;52789;59.980;30.346;2022-12-18T11:06:59;19.67;;;11.88;;
66020;SDS011;52789;59.980;30.346;2022-12-18T11:09:37;20.35;;;12.07;;
66020;SDS011;52789;59.980;30.346;2022-12-18T11:12:14;20.08;;;12.52;;
66020;SDS011;52789;59.980;30.346;2022-12-18T11:14:43;20.50;;;10.38;;
66020;SDS011;52789;59.980;30.346;2022-12-18T11:17:22;18.55;;;9.50;;
66020;SDS011;52789;59.980;30.346;2022-12-18T11:20:07;20.45;;;11.38;;
66020;SDS011;52789;59.980;30.346;2022-12-18T11:22:59;21.35;;;12.88;;
66020;SDS011;52789;59.980;30.346;2022-12-18T11:25:31;21.23;;;12.45;;
66020;SDS011;52789;59.980;30.346;2022-12-18T11:28:03;20.77;;;12.07;;
66020;SDS011;52789;59.980;30.346;2022-12-18T11:30:48;18.85;;;11.38;;
66020;SDS011;52789;59.980;30.346;2022-12-18T11:33:57;19.35;;;11.43;;
66020;SDS011;52789;59.980;30.346;2022-12-18T11:36:08;19.20;;;11.20;;
66020;SDS011;52789;59.980;30.346;2022-12-18T11:38:44;21.35;;;12.75;;
66020;SDS011;52789;59.980;30.346;2022-12-18T11:41:19;20.05;;;10.45;;
66020;SDS011;52789;59.980;30.346;2022-12-18T11:44:15;20.25;;;10.85;;
66020;SDS011;52789;59.980;30.346;2022-12-18T11:46:55;21.38;;;12.02;;
66020;SDS011;52789;59.980;30.346;2022-12-18T11:49:27;21.35;;;12.32;;
66020;SDS011;52789;59.980;30.346;2022-12-18T11:52:03;22.67;;;13.05;;
66020;SDS011;52789;59.980;30.346;2022-12-18T11:54:35;21.63;;;12.40;;
66020;SDS011;52789;59.980;30.346;2022-12-18T11:59:52;26.47;;;16.30;;
66020;SDS011;52789;59.980;30.346;2022-12-18T12:02:42;31.48;;;15.93;;
66020;SDS011;52789;59.980;30.346;2022-12-18T12:27:18;18.50;;;11.95;;
66020;SDS011;52789;59.980;30.346;2022-12-18T12:35:29;22.48;;;13.73;;
66020;SDS011;52789;59.980;30.346;2022-12-18T12:38:12;22.20;;;11.65;;
66020;SDS011;52789;59.980;30.346;2022-12-18T12:40:49;23.90;;;13.10;;
66020;SDS011;52789;59.980;30.346;2022-12-18T12:43:33;23.77;;;12.77;;
66020;SDS011;52789;59.980;30.346;2022-12-18T12:46:10;24.50;;;13.07;;
66020;SDS011;52789;59.980;30.346;2022-12-18T12:48:44;26.20;;;11.63;;
66020;SDS011;52789;59.980;30.346;2022-12-18T12:51:20;25.95;;;13.98;;
66020;SDS011;52789;59.980;30.346;2022-12-18T12:53:48;19.30;;;12.85;;
66020;SDS011;52789;59.980;30.346;2022-12-18T12:56:14;20.25;;;11.77;;
66020;SDS011;52789;59.980;30.346;2022-12-18T13:09:23;25.25;;;13.02;;
66020;SDS011;52789;59.980;30.346;2022-12-18T13:11:49;22.97;;;13.57;;
66020;SDS011;52789;59.980;30.346;2022-12-18T13:14:36;24.58;;;13.07;;
66020;SDS011;52789;59.980;30.346;2022-12-18T13:19:48;25.83;;;13.10;;
66020;SDS011;52789;59.980;30.346;2022-12-18T13:24:59;31.48;;;14.25;;
66020;SDS011;52789;59.980;30.346;2022-12-18T13:35:53;25.45;;;13.48;;
66020;SDS011;52789;59.980;30.346;2022-12-18T13:40:57;20.80;;;12.57;;
66020;SDS011;52789;59.980;30.346;2022-12-18T13:43:27;23.40;;;11.82;;
66020;SDS011;52789;59.980;30.346;2022-12-18T13:48:53;20.38;;;11.82;;
66020;SDS011;52789;59.980;30.346;2022-12-18T13:51:23;27.48;;;13.80;;
66020;SDS011;52789;59.980;30.346;2022-12-18T13:54:17;21.42;;;12.20;;
66020;SDS011;52789;59.980;30.346;2022-12-18T13:56:46;28.67;;;13.88;;
66020;SDS011;52789;59.980;30.346;2022-12-18T14:01:46;22.27;;;11.85;;
66020;SDS011;52789;59.980;30.346;2022-12-18T14:06:57;23.10;;;12.90;;
66020;SDS011;52789;59.980;30.346;2022-12-18T14:09:29;18.83;;;11.13;;
66020;SDS011;52789;59.980;30.346;2022-12-18T14:11:56;20.17;;;10.27;;
66020;SDS011;52789;59.980;30.346;2022-12-18T14:14:43;19.55;;;12.10;;
66020;SDS011;52789;59.980;30.346;2022-12-18T14:17:13;23.15;;;11.30;;
66020;SDS011;52789;59.980;30.346;2022-12-18T14:19:41;19.42;;;11.90;;
66020;SDS011;52789;59.980;30.346;2022-12-18T14:25:21;19.25;;;11.27;;
66020;SDS011;52789;59.980;30.346;2022-12-18T14:27:53;18.30;;;10.48;;
66020;SDS011;52789;59.980;30.346;2022-12-18T14:30:31;20.02;;;10.82;;
66020;SDS011;52789;59.980;30.346;2022-12-18T14:35:37;19.73;;;10.18;;
66020;SDS011;52789;59.980;30.346;2022-12-18T14:40:52;18.80;;;10.75;;
66020;SDS011;52789;59.980;30.346;2022-12-18T14:43:28;19.35;;;11.65;;
66020;SDS011;52789;59.980;30.346;2022-12-18T14:45:56;19.80;;;11.60;;
66020;SDS011;52789;59.980;30.346;2022-12-18T14:48:30;27.83;;;12.05;;
66020;SDS011;52789;59.980;30.346;2022-12-18T14:51:05;23.17;;;12.27;;
66020;SDS011;52789;59.980;30.346;2022-12-18T14:53:42;19.45;;;11.60;;
66020;SDS011;52789;59.980;30.346;2022-12-18T14:58:55;27.60;;;13.60;;
66020;SDS011;52789;59.980;30.346;2022-12-18T15:01:27;24.10;;;13.48;;
66020;SDS011;52789;59.980;30.346;2022-12-18T15:03:56;22.73;;;13.75;;
66020;SDS011;52789;59.980;30.346;2022-12-18T15:09:00;24.10;;;13.45;;
66020;SDS011;52789;59.980;30.346;2022-12-18T15:11:49;23.50;;;13.10;;
66020;SDS011;52789;59.980;30.346;2022-12-18T15:17:03;14.98;;;10.85;;
66020;SDS011;52789;59.980;30.346;2022-12-18T15:19:41;15.60;;;10.10;;
66020;SDS011;52789;59.980;30.346;2022-12-18T15:25:24;19.80;;;11.48;;
66020;SDS011;52789;59.980;30.346;2022-12-18T15:27:58;17.23;;;11.65;;
66020;SDS011;52789;59.980;30.346;2022-12-18T15:30:28;17.00;;;9.65;;
66020;SDS011;52789;59.980;30.346;2022-12-18T15:35:59;16.58;;;9.27;;
66020;SDS011;52789;59.980;30.346;2022-12-18T15:38:29;15.15;;;9.82;;
66020;SDS011;52789;59.980;30.346;2022-12-18T15:41:20;21.20;;;10.85;;
66020;SDS011;52789;59.980;30.346;2022-12-18T15:50:51;20.60;;;12.10;;
66020;SDS011;52789;59.980;30.346;2022-12-18T15:53:19;13.88;;;9.70;;
66020;SDS011;52789;59.980;30.346;2022-12-18T15:55:48;17.05;;;10.45;;
66020;SDS011;52789;59.980;30.346;2022-12-18T15:58:32;13.23;;;8.75;;
66020;SDS011;52789;59.980;30.346;2022-12-18T16:00:58;13.95;;;8.65;;
66020;SDS011;52789;59.980;30.346;2022-12-18T16:03:25;12.02;;;8.98;;
66020;SDS011;52789;59.980;30.346;2022-12-18T16:05:51;11.50;;;7.03;;
66020;SDS011;52789;59.980;30.346;2022-12-18T16:08:16;9.20;;;7.27;;
66020;SDS011;52789;59.980;30.346;2022-12-18T16:10:42;14.60;;;7.33;;
66020;SDS011;52789;59.980;30.346;2022-12-18T16:13:09;13.73;;;7.53;;
66020;SDS011;52789;59.980;30.346;2022-12-18T16:15:36;9.93;;;6.68;;
66020;SDS011;52789;59.980;30.346;2022-12-18T16:18:02;11.40;;;7.40;;
66020;SDS011;52789;59.980;30.346;2022-12-18T16:20:27;11.73;;;7.70;;
66020;SDS011;52789;59.980;30.346;2022-12-18T16:22:56;11.65;;;7.75;;
66020;SDS011;52789;59.980;30.346;2022-12-18T16:25:28;11.83;;;7.67;;
66020;SDS011;52789;59.980;30.346;2022-12-18T16:27:54;14.55;;;8.35;;
66020;SDS011;52789;59.980;30.346;2022-12-18T16:30:24;9.27;;;6.80;;
66020;SDS011;52789;59.980;30.346;2022-12-18T16:32:55;15.32;;;8.50;;
66020;SDS011;52789;59.980;30.346;2022-12-18T16:35:25;14.18;;;7.38;;
66020;SDS011;52789;59.980;30.346;2022-12-18T16:37:51;12.93;;;7.78;;
66020;SDS011;52789;59.980;30.346;2022-12-18T16:40:17;13.23;;;8.33;;
66020;SDS011;52789;59.980;30.346;2022-12-18T16:42:44;13.30;;;8.63;;
66020;SDS011;52789;59.980;30.346;2022-12-18T16:45:17;13.02;;;8.50;;
66020;SDS011;52789;59.980;30.346;2022-12-18T16:47:46;13.07;;;9.15;;
66020;SDS011;52789;59.980;30.346;2022-12-18T16:50:11;12.65;;;8.38;;
66020;SDS011;52789;59.980;30.346;2022-12-18T16:52:37;19.50;;;8.53;;
66020;SDS011;52789;59.980;30.346;2022-12-18T16:55:03;15.15;;;7.82;;
66020;SDS011;52789;59.980;30.346;2022-12-18T16:57:29;11.88;;;7.53;;
66020;SDS011;52789;59.980;30.346;2022-12-18T16:59:55;13.87;;;8.80;;
66020;SDS011;52789;59.980;30.346;2022-12-18T17:02:21;14.63;;;9.10;;